Napoleon, Ohio
Current Conditions -  °F | °C
As of 8:55 AM on Monday 24 Nov 2014 (Local Time) from KUSE Reporting Station
Broken Clouds Broken Clouds  
Wind Chill: 55°   Ceiling: 8000
Heat Index: 55°   Visibility: 10mi
Dew Point: 54°   Wind: 10mph
Humidity: 94%   Direction: 200°SSW
Pressure: 29.14"   Gusts: 17mph
Location:  41.39°N, 84.12°W
Report Text: KUSE 241355Z AUTO 20009G15KT 10SM FEW027 SCT055 BKN080 13/12 A2914 RMK AO2
Loading
Personal Weather Stations






























Interactive Weather Map New forecast layout! Learn more

10-Day Weather Forecast

Advertisements
Track Severe Weather on mobile